KELY/ELY METAR and TAF weather

Enter ICAO airport designator
Station Type Date Time Source
KELY METAR 2021/09/16 19:53 UTC NOAA

KELY 161953Z AUTO 28008G16KT 10SM CLR 27/M11 A3001 RMK AO2 SLP056 T02671111


Station Type Date Time Source
KELY Decoded METAR 2021/09/16 19:53 UTC NOAA

ELY AIRPORT (YELLAND FIELD), NV, United States (KELY) 39-18N 114-51W 1906M
Sep 16, 2021 - 03:53 PM EDT / 2021.09.16 1953 UTC
Wind: from the W (280 degrees) at 9 MPH (8 KT) gusting to 18 MPH (16 KT):0
Visibility: 10 mile(s):0
Sky conditions: clear
Temperature: 80.1 F (26.7 C)
Dew Point: 12.0 F (-11.1 C)
Relative Humidity: 7%
Pressure (altimeter): 30.01 in. Hg (1016 hPa)
ob: KELY 161953Z AUTO 28008G16KT 10SM CLR 27/M11 A3001 RMK AO2 SLP056 T02671111
cycle: 20

Station Type Date Time Source
KELY TAF 2021/09/16 18:54 UTC NOAA

TAF KELY 161752Z 1618/1718 19010KT P6SM SKC
FM161900 21011G19KT P6SM FEW120
FM170400 19010KT P6SM SKC

Example: see airport list